Alexander, Maine
Current Conditions -  °F | °C
As of 7:35 PM on Friday 24 Oct 2014 (Local Time) from KBHB Reporting Station
Overcast Overcast  
Wind Chill: 40°   Ceiling: 1200
Heat Index: 45°   Visibility: 10mi
Dew Point: 45°   Wind: 9mph
Humidity: 100%   Direction: 360°N
Pressure: 29.63"   Gusts: NA
Location:  45.0659°N, 67.4987°W
Report Text: KBHB 242335Z AUTO 36008KT 330V030 10SM OVC012 07/07 A2963 RMK AO1
Loading
Personal Weather Stations






























Interactive Weather Map
Tropical Storm Tracking
New forecast layout! Learn more

10-Day Weather Forecast

Advertisements
Track Severe Weather on mobile